Aviation Digital Data Service (ADDS)

Output produced by METARs form (1224 UTC 20 October 2021)
found at http://www.aviationweather.gov/metar/data/
 
METAR text: EHKD 201215Z AUTO 23021KT 200V260 9999 BKN015 OVC019 17/14 Q0998 WHT NOSIG
Conditions at: EHKD (DE KOOY (NAVY) , NL) observed 1215 UTC 20 October 2021
Temperature: 17.0°C (63°F)
Dewpoint: 14.0°C (57°F) [RH = 82%]
Pressure (altimeter): 29.47 inches Hg (998.0 mb)
Winds: from the SW (230 degrees) at 24 MPH (21 knots; 10.8 m/s)
Visibility: 6 or more miles (10+ km)
Ceiling: 1500 feet AGL
Clouds: broken clouds at 1500 feet AGL
overcast cloud deck at 1900 feet AGL
Weather: no significant weather observed at this time

METAR text: EHKD 201209Z AUTO 22022KT 9999 SCT014 BKN016 BKN022 17/14 Q0998 GRN NOSIG
Conditions at: EHKD (DE KOOY (NAVY) , NL) observed 1209 UTC 20 October 2021
Temperature: 17.0°C (63°F)
Dewpoint: 14.0°C (57°F) [RH = 82%]
Pressure (altimeter): 29.47 inches Hg (998.0 mb)
Winds: from the SW (220 degrees) at 25 MPH (22 knots; 11.3 m/s)
Visibility: 6 or more miles (10+ km)
Ceiling: 1600 feet AGL
Clouds: scattered clouds at 1400 feet AGL
broken clouds at 1600 feet AGL
broken clouds at 2200 feet AGL
Weather: no significant weather observed at this time

METAR text: EHKD 201155Z AUTO 22022G33KT 190V250 9999 FEW016 BKN020 BKN023 17/15 Q0998 WHT NOSIG
Conditions at: EHKD (DE KOOY (NAVY) , NL) observed 1155 UTC 20 October 2021
Temperature: 17.0°C (63°F)
Dewpoint: 15.0°C (59°F) [RH = 88%]
Pressure (altimeter): 29.47 inches Hg (998.0 mb)
Winds: from the SW (220 degrees) at 25 MPH (22 knots; 11.3 m/s)
gusting to 38 MPH (33 knots; 17.0 m/s)
Visibility: 6 or more miles (10+ km)
Ceiling: 2000 feet AGL
Clouds: few clouds at 1600 feet AGL
broken clouds at 2000 feet AGL
broken clouds at 2300 feet AGL
Weather: no significant weather observed at this time

METAR text: EHKD 201132Z AUTO 22023KT 190V250 9999 FEW014 SCT017 BKN021 17/15 Q0998 WHT NOSIG
Conditions at: EHKD (DE KOOY (NAVY) , NL) observed 1132 UTC 20 October 2021
Temperature: 17.0°C (63°F)
Dewpoint: 15.0°C (59°F) [RH = 88%]
Pressure (altimeter): 29.47 inches Hg (998.0 mb)
Winds: from the SW (220 degrees) at 26 MPH (23 knots; 11.8 m/s)
Visibility: 6 or more miles (10+ km)
Ceiling: 2100 feet AGL
Clouds: few clouds at 1400 feet AGL
scattered clouds at 1700 feet AGL
broken clouds at 2100 feet AGL
Weather: no significant weather observed at this time

METAR text: EHKD 201128Z AUTO 22024G34KT 190V250 9999 FEW014 SCT017 BKN052 17/15 Q0998 WHT NOSIG
Conditions at: EHKD (DE KOOY (NAVY) , NL) observed 1128 UTC 20 October 2021
Temperature: 17.0°C (63°F)
Dewpoint: 15.0°C (59°F) [RH = 88%]
Pressure (altimeter): 29.47 inches Hg (998.0 mb)
Winds: from the SW (220 degrees) at 28 MPH (24 knots; 12.3 m/s)
gusting to 39 MPH (34 knots; 17.5 m/s)
Visibility: 6 or more miles (10+ km)
Ceiling: 5200 feet AGL
Clouds: few clouds at 1400 feet AGL
scattered clouds at 1700 feet AGL
broken clouds at 5200 feet AGL
Weather: no significant weather observed at this time

METAR text: EHKD 201125Z AUTO 22024G34KT 190V250 9000 BR FEW021 SCT045 BKN050 17/15 Q0998 BLU NOSIG
Conditions at: EHKD (DE KOOY (NAVY) , NL) observed 1125 UTC 20 October 2021
Temperature: 17.0°C (63°F)
Dewpoint: 15.0°C (59°F) [RH = 88%]
Pressure (altimeter): 29.47 inches Hg (998.0 mb)
Winds: from the SW (220 degrees) at 28 MPH (24 knots; 12.3 m/s)
gusting to 39 MPH (34 knots; 17.5 m/s)
Visibility: 6 miles ( 9 km)
Ceiling: 5000 feet AGL
Clouds: few clouds at 2100 feet AGL
scattered clouds at 4500 feet AGL
broken clouds at 5000 feet AGL
Weather: BR  (mist)

Forecast for: EHKD (DE KOOY (NAVY) , NL)
Text: TAF EHKD 200831Z 2009/2021 22020G30KT 9999 SCT015 BKN020
Forecast period: 0900 to 1100 UTC 20 October 2021
Forecast type: FROM: standard forecast or significant change
Winds: from the SW (220 degrees) at 23 MPH (20 knots; 10.3 m/s)
gusting to 34 MPH (30 knots; 15.4 m/s)
Visibility: 6 or more miles (10+ km)
Ceiling: 2000 feet AGL
Clouds: scattered clouds at 1500 feet AGL
broken clouds at 2000 feet AGL
Weather: no significant weather forecast for this period
Text: TEMPO 2009/2011 4000 RA SHRA SCT007 BKN010 SCT020CB
Forecast period: 0900 to 1100 UTC 20 October 2021
Forecast type: TEMPORARY: The following changes expected for less than half the time period
Visibility: 2.49 miles (4.01 km)
Ceiling: 1000 feet AGL
Clouds: scattered clouds at 700 feet AGL
broken clouds at 1000 feet AGL
scattered clouds at 2000 feet AGL
Weather: RA SHRA  (moderate rain, rain showers)
Text: BECMG 2011/2013 SCT025
Forecast period: 1100 to 2100 UTC 20 October 2021
Forecast type: BECOMING: Conditions expected to become as follows by 1300 UTC 20 October 2021
Winds: from the SW (220 degrees) at 23 MPH (20 knots; 10.3 m/s)
gusting to 34 MPH (30 knots; 15.4 m/s)
Visibility: 6 or more miles (10+ km)
Ceiling: at least 12,000 feet AGL
Clouds: scattered clouds at 2500 feet AGL
Weather: no significant weather forecast for this period
Text: TEMPO 2011/2017 23025G40KT 3000 SHRA FEW015 SCT022CB
Forecast period: 1100 to 1700 UTC 20 October 2021
Forecast type: TEMPORARY: The following changes expected for less than half the time period
Winds: from the SW (230 degrees) at 29 MPH (25 knots; 12.9 m/s)
gusting to 46 MPH (40 knots; 20.6 m/s)
Visibility: 1.86 miles (2.99 km)
Ceiling: at least 12,000 feet AGL
Clouds: few clouds at 1500 feet AGL
scattered clouds at 2200 feet AGL
Weather: SHRA  (rain showers)
Text: PROB30
Forecast period: 1300 to 1700 UTC 20 October 2021
Forecast type: TEMPORARY: The following changes expected for less than half the time period
Visibility: 1.24 miles (2.00 km)
Ceiling: at least 12,000 feet AGL
Clouds: scattered clouds at 1500 feet AGL
scattered clouds at 2000 feet AGL
Weather: TSRA  (rain associated with thunderstorm(s))